createdAt,value
2019-04-16T00:02:12.819Z,98114.41
2019-04-16T00:05:02.555Z,98113.30
2019-04-16T00:07:47.697Z,98114.54
2019-04-16T00:10:25.128Z,98119.33
2019-04-16T00:13:11.951Z,98114.73
2019-04-16T00:15:42.480Z,98117.70
2019-04-16T00:18:12.779Z,98114.70
2019-04-16T00:21:00.729Z,98114.70
2019-04-16T00:23:42.169Z,98108.06
2019-04-16T00:26:12.947Z,98103.02
2019-04-16T00:28:43.134Z,98112.25
2019-04-16T00:31:13.453Z,98105.31
2019-04-16T00:33:43.642Z,98103.72
2019-04-16T00:36:15.420Z,98106.39
2019-04-16T00:38:45.620Z,98101.05
2019-04-16T00:41:15.938Z,98100.28
2019-04-16T00:43:46.236Z,98104.50
2019-04-16T00:46:17.542Z,98099.69
2019-04-16T00:48:47.669Z,98104.23
2019-04-16T00:51:18.006Z,98099.64
2019-04-16T00:53:48.208Z,98100.05
2019-04-16T00:56:18.384Z,98093.59
2019-04-16T00:58:49.412Z,98090.15
2019-04-16T01:01:21.011Z,98089.06
2019-04-16T01:03:51.469Z,98089.88
2019-04-16T01:06:21.789Z,98086.18
2019-04-16T01:08:54.991Z,98084.29
2019-04-16T01:11:24.197Z,98077.28
2019-04-16T01:13:55.736Z,98071.69
2019-04-16T01:16:26.436Z,98066.83
2019-04-16T01:18:57.782Z,98064.71
2019-04-16T01:21:28.066Z,98061.16
2019-04-16T01:23:58.207Z,98058.19
2019-04-16T01:26:28.432Z,98057.59
2019-04-16T01:29:10.702Z,98048.20
2019-04-16T01:32:09.899Z,98055.58
2019-04-16T01:34:56.724Z,98052.27
2019-04-16T01:37:43.244Z,98062.03
2019-04-16T01:40:18.443Z,98053.65
2019-04-16T01:42:47.303Z,98056.73
2019-04-16T01:45:17.747Z,98051.84
2019-04-16T01:47:48.050Z,98053.11
2019-04-16T01:50:18.175Z,98059.95
2019-04-16T01:52:50.302Z,98057.84
2019-04-16T01:55:20.424Z,98060.47
2019-04-16T01:57:50.592Z,98059.09
2019-04-16T02:00:20.968Z,98063.64
2019-04-16T02:02:51.113Z,98064.67
2019-04-16T02:05:23.118Z,98063.04
2019-04-16T02:07:53.478Z,98064.02
2019-04-16T02:10:24.279Z,98064.11
2019-04-16T02:12:54.514Z,98060.28
2019-04-16T02:15:24.714Z,98061.60
2019-04-16T02:17:55.414Z,98057.47
2019-04-16T02:20:27.133Z,98058.80
2019-04-16T02:22:57.307Z,98058.80
2019-04-16T02:25:27.640Z,98056.38
2019-04-16T02:27:57.958Z,98056.61
2019-04-16T02:30:28.223Z,98061.94
2019-04-16T02:32:58.329Z,98060.81
2019-04-16T02:35:28.516Z,98057.31
2019-04-16T02:37:58.683Z,98059.41
2019-04-16T02:40:28.814Z,98059.98
2019-04-16T02:43:04.215Z,98054.65
2019-04-16T02:45:30.915Z,98056.75
2019-04-16T02:48:01.323Z,98052.55
2019-04-16T02:50:38.545Z,98056.59
2019-04-16T02:53:33.589Z,98054.86
2019-04-16T02:56:29.218Z,98056.19
2019-04-16T02:59:11.764Z,98059.02
2019-04-16T03:01:56.350Z,98054.66
2019-04-16T03:04:30.464Z,98048.41
2019-04-16T03:07:03.237Z,98054.34
2019-04-16T03:09:32.847Z,98057.52
2019-04-16T03:12:03.094Z,98048.67
2019-04-16T03:14:33.252Z,98056.34
2019-04-16T03:17:21.335Z,98052.40
2019-04-16T03:19:52.590Z,98055.73
2019-04-16T03:22:22.981Z,98052.25
2019-04-16T03:24:53.209Z,98054.69
2019-04-16T03:27:23.586Z,98052.03
2019-04-16T03:29:53.750Z,98050.59
2019-04-16T03:32:23.955Z,98058.02
2019-04-16T03:34:54.184Z,98062.43
2019-04-16T03:37:24.396Z,98056.16
2019-04-16T03:39:54.527Z,98056.16
2019-04-16T03:42:27.264Z,98059.34
2019-04-16T03:44:57.705Z,98055.84
2019-04-16T03:47:28.155Z,98062.66
2019-04-16T03:49:59.401Z,98062.28
2019-04-16T03:52:30.506Z,98056.91
2019-04-16T03:55:00.644Z,98063.81
2019-04-16T03:57:33.279Z,98063.35
2019-04-16T04:00:02.913Z,98065.52
2019-04-16T04:02:33.972Z,98067.09
2019-04-16T04:05:06.860Z,98071.95
2019-04-16T04:07:36.476Z,98066.94
2019-04-16T04:10:07.700Z,98071.69
2019-04-16T04:12:38.055Z,98071.42
2019-04-16T04:15:08.971Z,98072.75
2019-04-16T04:17:39.602Z,98076.25
2019-04-16T04:20:11.135Z,98075.11
2019-04-16T04:22:41.445Z,98081.76
2019-04-16T04:25:11.771Z,98089.42
2019-04-16T04:27:43.666Z,98086.24
2019-04-16T04:30:16.660Z,98090.64
2019-04-16T04:32:47.866Z,98091.12
2019-04-16T04:35:21.791Z,98091.58
2019-04-16T04:37:50.496Z,98091.91
2019-04-16T04:40:21.031Z,98093.24
2019-04-16T04:42:51.250Z,98092.45
2019-04-16T04:45:21.534Z,98094.05
2019-04-16T04:47:52.380Z,98097.34
2019-04-16T04:50:23.388Z,98094.03
2019-04-16T04:52:53.640Z,98101.64
2019-04-16T04:55:26.914Z,98108.13
2019-04-16T04:57:56.193Z,98109.16
2019-04-16T05:00:26.415Z,98108.20
2019-04-16T05:02:56.844Z,98108.91
2019-04-16T05:05:40.979Z,98111.22
2019-04-16T05:08:11.479Z,98120.75
2019-04-16T05:10:43.248Z,98117.08
2019-04-16T05:13:13.710Z,98113.78
2019-04-16T05:15:43.860Z,98110.61
2019-04-16T05:18:14.253Z,98119.41
2019-04-16T05:20:47.010Z,98114.07
2019-04-16T05:23:16.395Z,98113.63
2019-04-16T05:25:46.925Z,98115.45
2019-04-16T05:28:17.148Z,98117.60
2019-04-16T05:30:51.858Z,98116.50
2019-04-16T05:33:19.465Z,98118.83
2019-04-16T05:35:49.848Z,98118.87
2019-04-16T05:38:23.554Z,98127.10
2019-04-16T05:40:53.183Z,98127.98
2019-04-16T05:43:23.507Z,98138.44
2019-04-16T05:45:53.670Z,98123.38
2019-04-16T05:48:24.278Z,98129.78
2019-04-16T05:50:59.761Z,98141.15
2019-04-16T05:53:27.575Z,98138.67
2019-04-16T05:56:14.356Z,98148.50
2019-04-16T05:58:44.564Z,98152.52
2019-04-16T06:01:34.004Z,98148.21
2019-04-16T06:04:04.462Z,98151.70
2019-04-16T06:06:34.687Z,98153.60
2019-04-16T06:09:11.855Z,98158.93
2019-04-16T06:11:39.862Z,98148.23
2019-04-16T06:14:26.271Z,98165.88
2019-04-16T06:17:15.268Z,98156.31
2019-04-16T06:20:07.923Z,98159.45
2019-04-16T06:22:47.123Z,98163.15
2019-04-16T06:25:45.266Z,98164.09
2019-04-16T06:28:43.801Z,98163.85
2019-04-16T06:31:39.189Z,98174.79
2019-04-16T06:34:31.492Z,98178.75
2019-04-16T06:37:27.161Z,98182.98
2019-04-16T06:40:06.686Z,98179.52
2019-04-16T06:43:07.959Z,98189.09
2019-04-16T06:45:46.504Z,98181.47
2019-04-16T06:48:22.255Z,98180.02
2019-04-16T06:51:12.648Z,98180.73
2019-04-16T06:54:04.936Z,98181.61
2019-04-16T06:56:52.306Z,98176.75
2019-04-16T06:59:53.658Z,98177.72
2019-04-16T07:02:37.604Z,98174.48
2019-04-16T07:05:16.031Z,98167.59
2019-04-16T07:08:00.899Z,98167.30
2019-04-16T07:10:44.375Z,98171.87
2019-04-16T07:13:10.276Z,98172.20
2019-04-16T07:15:39.145Z,98170.63
2019-04-16T07:18:09.570Z,98164.67
2019-04-16T07:20:42.318Z,98151.30
2019-04-16T07:23:13.428Z,98150.91
2019-04-16T07:25:44.924Z,98151.16
2019-04-16T07:28:38.947Z,98151.41
2019-04-16T07:31:31.769Z,98158.39
2019-04-16T07:34:03.685Z,98163.89
2019-04-16T07:36:56.636Z,98152.41
2019-04-16T07:39:47.937Z,98149.91
2019-04-16T07:42:50.999Z,98154.66
2019-04-16T07:45:25.423Z,98149.08
2019-04-16T07:48:23.848Z,98156.23
2019-04-16T07:51:16.464Z,98159.57
2019-04-16T07:54:04.266Z,98157.32
2019-04-16T07:56:36.513Z,98160.34
2019-04-16T07:59:06.976Z,98157.83
2019-04-16T08:01:37.244Z,98151.09
2019-04-16T08:04:08.007Z,98154.25
2019-04-16T08:06:38.501Z,98154.16
2019-04-16T08:09:10.427Z,98158.50
2019-04-16T08:11:43.729Z,98160.56
2019-04-16T08:14:15.770Z,98155.14
2019-04-16T08:16:48.276Z,98153.97
2019-04-16T08:19:18.725Z,98150.73
2019-04-16T08:21:49.227Z,98146.22
2019-04-16T08:24:25.519Z,98141.92
2019-04-16T08:26:55.834Z,98139.13
2019-04-16T08:29:26.704Z,98133.78
2019-04-16T08:31:57.256Z,98142.11
2019-04-16T08:34:27.806Z,98138.78
2019-04-16T08:36:58.343Z,98143.39
2019-04-16T08:39:28.720Z,98144.60
2019-04-16T08:41:59.079Z,98140.13
2019-04-16T08:44:29.878Z,98142.74
2019-04-16T08:47:00.201Z,98128.69
2019-04-16T08:49:33.388Z,98135.91
2019-04-16T08:52:03.812Z,98135.97
2019-04-16T08:54:34.309Z,98136.63
2019-04-16T08:57:04.861Z,98140.23
2019-04-16T08:59:35.379Z,98133.36
2019-04-16T09:02:05.779Z,98134.91
2019-04-16T09:04:36.391Z,98133.11
2019-04-16T09:07:11.945Z,98140.17
2019-04-16T09:09:57.127Z,98132.25
2019-04-16T09:12:26.608Z,98127.70
2019-04-16T09:14:57.038Z,98126.30
2019-04-16T09:17:39.586Z,98123.63
2019-04-16T09:20:12.705Z,98116.22
2019-04-16T09:22:49.350Z,98121.41
2019-04-16T09:25:32.944Z,98117.73
2019-04-16T09:28:25.788Z,98119.23
2019-04-16T09:31:08.273Z,98119.45
2019-04-16T09:34:05.608Z,98125.98
2019-04-16T09:37:10.106Z,98137.30
2019-04-16T09:40:15.531Z,98131.59
2019-04-16T09:42:35.710Z,98126.44
2019-04-16T09:45:06.858Z,98127.75
2019-04-16T09:47:37.150Z,98128.16
2019-04-16T09:50:11.045Z,98130.54
2019-04-16T09:52:39.691Z,98122.65
2019-04-16T09:55:24.115Z,98134.58
2019-04-16T09:57:54.917Z,98128.95
2019-04-16T10:00:30.799Z,98127.91
2019-04-16T10:03:10.166Z,98127.08
2019-04-16T10:05:40.462Z,98130.21
2019-04-16T10:08:12.631Z,98120.94
2019-04-16T10:10:42.974Z,98119.66
2019-04-16T10:13:13.153Z,98112.78
2019-04-16T10:15:43.424Z,98108.63
2019-04-16T10:18:13.688Z,98116.88
2019-04-16T10:20:43.900Z,98109.16
2019-04-16T10:23:20.927Z,98111.98
2019-04-16T10:25:52.341Z,98114.61
2019-04-16T10:28:29.641Z,98111.55
2019-04-16T10:31:02.825Z,98117.81
2019-04-16T10:33:33.214Z,98111.05
2019-04-16T10:36:04.920Z,98110.36
2019-04-16T10:38:45.703Z,98109.89
2019-04-16T10:41:41.738Z,98104.59
2019-04-16T10:44:29.697Z,98107.78
2019-04-16T10:47:19.973Z,98098.84
2019-04-16T10:50:08.850Z,98091.05
2019-04-16T10:53:07.484Z,98091.17
2019-04-16T10:55:55.403Z,98092.65
2019-04-16T10:58:44.648Z,98081.03
2019-04-16T11:01:45.743Z,98077.38
2019-04-16T11:04:36.041Z,98081.08
2019-04-16T11:15:03.516Z,98075.19
2019-04-16T11:17:34.400Z,98072.25
2019-04-16T11:20:06.168Z,98074.23
2019-04-16T11:22:36.678Z,98071.06
2019-04-16T11:25:07.925Z,98064.63
2019-04-16T11:27:38.163Z,98065.86
2019-04-16T11:30:12.376Z,98052.95
2019-04-16T11:32:42.680Z,98056.94
2019-04-16T11:35:17.364Z,98054.22
2019-04-16T11:37:46.067Z,98056.84
2019-04-16T11:40:16.819Z,98056.87
2019-04-16T11:42:47.444Z,98050.12
2019-04-16T11:45:19.021Z,98053.84
2019-04-16T11:47:49.444Z,98045.84
2019-04-16T11:50:19.895Z,98045.36
2019-04-16T11:52:50.149Z,98045.19
2019-04-16T11:55:20.435Z,98043.84
2019-04-16T11:57:50.701Z,98038.91
2019-04-16T12:00:28.595Z,98036.05
2019-04-16T12:03:07.211Z,98033.42
2019-04-16T12:05:51.913Z,98027.69
2019-04-16T12:08:56.216Z,98031.27
2019-04-16T12:11:45.811Z,98027.89
2019-04-16T12:14:34.997Z,98032.14
2019-04-16T12:17:11.669Z,98031.17
2019-04-16T12:20:09.722Z,98037.45
2019-04-16T12:23:02.194Z,98039.02
2019-04-16T12:25:39.447Z,98049.07
2019-04-16T12:28:28.544Z,98042.25
2019-04-16T12:31:32.921Z,98045.69
2019-04-16T12:34:10.230Z,98042.71
2019-04-16T12:37:15.216Z,98052.28
2019-04-16T12:40:23.029Z,98044.63
2019-04-16T12:43:18.547Z,98053.61
2019-04-16T12:45:56.876Z,98038.86
2019-04-16T12:48:44.844Z,98043.64
2019-04-16T12:51:19.935Z,98038.91
2019-04-16T12:54:08.432Z,98034.63
2019-04-16T12:57:07.063Z,98039.44
2019-04-16T12:59:59.587Z,98038.25
2019-04-16T13:02:54.647Z,98038.94
2019-04-16T13:05:44.697Z,98036.05
2019-04-16T13:08:33.158Z,98039.98
2019-04-16T13:11:22.308Z,98043.73
2019-04-16T13:14:13.593Z,98047.98
2019-04-16T13:17:01.768Z,98050.05
2019-04-16T13:19:38.920Z,98055.41
2019-04-16T13:22:08.846Z,98063.63
2019-04-16T13:24:48.046Z,98065.02
2019-04-16T13:27:23.856Z,98067.02
2019-04-16T13:29:53.336Z,98066.52
2019-04-16T13:32:23.511Z,98072.04
2019-04-16T13:34:53.966Z,98066.33
2019-04-16T13:37:24.640Z,98062.03
2019-04-16T13:40:02.409Z,98060.11
2019-04-16T13:42:33.332Z,98068.20
2019-04-16T13:45:18.208Z,98069.92
2019-04-16T13:47:47.591Z,98076.05
2019-04-16T13:50:25.271Z,98073.67
2019-04-16T13:53:04.890Z,98076.07
2019-04-16T13:55:49.412Z,98078.10
2019-04-16T13:58:43.307Z,98071.50
2019-04-16T14:01:20.430Z,98073.44
2019-04-16T14:03:50.799Z,98076.18
2019-04-16T14:06:21.357Z,98073.50
2019-04-16T14:08:53.431Z,98075.59
2019-04-16T14:11:23.695Z,98073.66
2019-04-16T14:13:54.189Z,98077.13
2019-04-16T14:16:26.008Z,98074.68
2019-04-16T14:18:56.669Z,98078.16
2019-04-16T14:21:27.179Z,98089.26
2019-04-16T14:23:57.502Z,98092.14
2019-04-16T14:26:28.051Z,98094.20
2019-04-16T14:28:58.740Z,98099.90
2019-04-16T14:31:29.549Z,98103.19
2019-04-16T14:34:14.064Z,98104.91
2019-04-16T14:36:44.806Z,98110.36
2019-04-16T14:39:40.202Z,98110.05
2019-04-16T14:42:10.502Z,98113.88
2019-04-16T14:44:45.045Z,98122.73
2019-04-16T14:47:15.568Z,98123.38
2019-04-16T14:49:47.787Z,98130.05
2019-04-16T14:52:18.348Z,98131.91
2019-04-16T14:55:25.838Z,98123.53
2019-04-16T14:58:16.247Z,98132.72
2019-04-16T15:01:04.735Z,98132.77
2019-04-16T15:03:52.668Z,98139.68
2019-04-16T15:06:43.317Z,98141.84
2019-04-16T15:09:31.437Z,98138.55
2019-04-16T15:12:20.582Z,98139.80
2019-04-16T15:15:12.110Z,98136.30
2019-04-16T15:17:48.396Z,98139.45
2019-04-16T15:20:40.829Z,98131.90
2019-04-16T15:23:28.882Z,98142.61
2019-04-16T15:26:20.829Z,98138.12
2019-04-16T15:28:59.607Z,98138.64
2019-04-16T15:32:04.472Z,98140.97
2019-04-16T15:34:41.971Z,98140.81
2019-04-16T15:37:27.570Z,98141.27
2019-04-16T15:40:06.935Z,98151.34
2019-04-16T15:42:50.574Z,98147.72
2019-04-16T15:45:43.768Z,98145.92
2019-04-16T15:48:33.218Z,98152.52
2019-04-16T15:51:23.282Z,98150.48
2019-04-16T15:54:09.163Z,98148.87
2019-04-16T15:56:43.404Z,98153.20
2019-04-16T15:59:17.718Z,98149.33
2019-04-16T16:02:11.862Z,98156.47
2019-04-16T16:04:46.553Z,98154.29
2019-04-16T16:07:23.976Z,98154.25
2019-04-16T16:10:12.720Z,98152.86
2019-04-16T16:12:41.218Z,98156.49
2019-04-16T16:15:12.069Z,98155.23
2019-04-16T16:17:42.517Z,98161.09
2019-04-16T16:20:13.491Z,98168.03
2019-04-16T16:22:43.923Z,98170.83
2019-04-16T16:25:14.323Z,98172.73
2019-04-16T16:27:47.029Z,98180.34
2019-04-16T16:30:16.762Z,98181.88
2019-04-16T16:32:47.041Z,98180.12
2019-04-16T16:35:18.111Z,98186.20
2019-04-16T16:37:48.431Z,98180.72
2019-04-16T16:40:19.111Z,98183.17
2019-04-16T16:42:49.587Z,98178.48
2019-04-16T16:45:21.798Z,98180.09
2019-04-16T16:47:52.038Z,98180.84
2019-04-16T16:50:22.635Z,98178.53
2019-04-16T16:53:15.235Z,98181.51
2019-04-16T16:55:48.326Z,98182.55
2019-04-16T16:58:36.216Z,98189.52
2019-04-16T17:01:24.233Z,98189.71
2019-04-16T17:04:13.586Z,98185.13
2019-04-16T17:06:44.207Z,98190.50
2019-04-16T17:09:31.980Z,98189.95
2019-04-16T17:12:02.414Z,98189.70
2019-04-16T17:14:36.467Z,98187.08
2019-04-16T17:17:12.878Z,98181.72
2019-04-16T17:19:37.428Z,98178.44
2019-04-16T17:22:07.843Z,98181.66
2019-04-16T17:24:38.262Z,98186.99
2019-04-16T17:27:09.211Z,98198.06
2019-04-16T17:29:39.550Z,98199.69
2019-04-16T17:32:09.855Z,98199.77
2019-04-16T17:34:40.538Z,98203.55
2019-04-16T17:37:11.032Z,98206.48
2019-04-16T17:39:52.853Z,98210.16
2019-04-16T17:42:37.608Z,98213.06
2019-04-16T17:45:28.308Z,98217.45
2019-04-16T17:48:18.127Z,98219.69
2019-04-16T17:51:07.905Z,98221.64
2019-04-16T17:53:50.303Z,98219.88
2019-04-16T17:56:38.475Z,98230.05
2019-04-16T17:59:12.227Z,98231.34
2019-04-16T18:02:04.514Z,98236.31
2019-04-16T18:05:02.942Z,98244.12
2019-04-16T18:07:51.227Z,98246.09
2019-04-16T18:10:34.576Z,98249.03
2019-04-16T18:13:13.865Z,98251.95
2019-04-16T18:16:08.065Z,98255.92
2019-04-16T18:18:49.347Z,98259.41
2019-04-16T18:21:41.886Z,98259.14
2019-04-16T18:24:37.269Z,98257.69
2019-04-16T18:27:33.478Z,98258.99
2019-04-16T18:30:38.450Z,98261.77
2019-04-16T18:33:22.759Z,98262.23
2019-04-16T18:36:17.061Z,98268.27
2019-04-16T18:39:06.447Z,98268.37
2019-04-16T18:41:42.665Z,98272.50
2019-04-16T18:44:53.871Z,98275.06
2019-04-16T18:47:45.740Z,98284.39
2019-04-16T18:50:23.587Z,98288.66
2019-04-16T18:52:52.187Z,98295.02
2019-04-16T18:55:22.793Z,98302.64
2019-04-16T18:57:53.472Z,98304.78
2019-04-16T19:00:46.062Z,98309.05
2019-04-16T19:03:16.657Z,98311.28
2019-04-16T19:05:47.401Z,98305.59
2019-04-16T19:08:17.851Z,98313.00
2019-04-16T19:10:51.363Z,98320.70
2019-04-16T19:13:21.859Z,98320.20
2019-04-16T19:15:53.216Z,98312.81
2019-04-16T19:18:25.288Z,98330.05
2019-04-16T19:20:55.912Z,98333.12
2019-04-16T19:23:26.358Z,98339.81
2019-04-16T19:25:56.840Z,98337.10
2019-04-16T19:28:27.972Z,98334.97
2019-04-16T19:30:59.703Z,98328.38
2019-04-16T19:33:34.354Z,98322.36
2019-04-16T19:36:03.037Z,98321.46
2019-04-16T19:38:35.798Z,98311.20
2019-04-16T19:41:06.003Z,98315.18
2019-04-16T19:43:37.132Z,98328.83
2019-04-16T19:46:07.768Z,98342.84
2019-04-16T19:48:38.201Z,98349.19
2019-04-16T19:51:09.041Z,98350.33
2019-04-16T19:53:39.932Z,98356.06
2019-04-16T19:56:10.847Z,98366.33
2019-04-16T19:58:44.275Z,98369.30
2019-04-16T20:01:14.286Z,98371.66
2019-04-16T20:03:44.607Z,98370.57
2019-04-16T20:06:15.343Z,98366.20
2019-04-16T20:08:45.970Z,98373.78
2019-04-16T20:11:20.457Z,98372.11
2019-04-16T20:13:49.161Z,98371.35
2019-04-16T20:16:19.451Z,98369.49
2019-04-16T20:18:51.496Z,98372.83
2019-04-16T20:21:22.090Z,98375.39
2019-04-16T20:23:53.120Z,98378.14
2019-04-16T20:26:23.851Z,98376.72
2019-04-16T20:28:56.761Z,98378.98
2019-04-16T20:31:27.232Z,98382.39
2019-04-16T20:33:57.496Z,98379.72
2019-04-16T20:36:27.871Z,98377.40
2019-04-16T20:38:58.628Z,98380.77
2019-04-16T20:41:28.883Z,98376.85
2019-04-16T20:43:59.369Z,98381.26
2019-04-16T20:46:29.811Z,98379.58
2019-04-16T20:49:09.632Z,98375.59
2019-04-16T20:51:32.633Z,98378.06
2019-04-16T20:54:12.831Z,98385.67
2019-04-16T20:56:41.193Z,98379.45
2019-04-16T20:59:11.873Z,98381.92
2019-04-16T21:01:42.204Z,98383.06
2019-04-16T21:04:12.642Z,98381.54
2019-04-16T21:06:42.990Z,98380.77
2019-04-16T21:09:13.710Z,98381.45
2019-04-16T21:11:44.068Z,98387.53
2019-04-16T21:14:14.461Z,98384.10
2019-04-16T21:16:44.967Z,98380.77
2019-04-16T21:19:23.012Z,98378.92
2019-04-16T21:21:47.624Z,98381.88
2019-04-16T21:24:18.019Z,98385.73
2019-04-16T21:26:51.126Z,98388.03
2019-04-16T21:29:33.344Z,98393.39
2019-04-16T21:32:09.881Z,98391.44
2019-04-16T21:34:47.204Z,98393.66
2019-04-16T21:37:35.687Z,98395.91
2019-04-16T21:40:10.003Z,98399.41
2019-04-16T21:42:41.604Z,98396.98
2019-04-16T21:45:16.446Z,98400.71
2019-04-16T21:47:47.637Z,98396.93
2019-04-16T21:50:18.327Z,98399.14
2019-04-16T21:52:48.887Z,98406.06
2019-04-16T21:55:19.946Z,98396.68
2019-04-16T21:57:50.204Z,98401.44
2019-04-16T22:00:38.352Z,98416.20
2019-04-16T22:03:11.707Z,98411.05
2019-04-16T22:05:42.405Z,98407.83
2019-04-16T22:08:13.300Z,98409.49
2019-04-16T22:10:46.758Z,98413.84
2019-04-16T22:13:19.346Z,98414.14
2019-04-16T22:15:49.863Z,98412.81
2019-04-16T22:18:20.325Z,98413.88
2019-04-16T22:20:50.976Z,98421.17
2019-04-16T22:23:21.283Z,98416.88
2019-04-16T22:25:53.031Z,98410.64
2019-04-16T22:28:23.512Z,98422.28
2019-04-16T22:30:53.712Z,98421.51
2019-04-16T22:33:24.013Z,98433.16
2019-04-16T22:35:54.227Z,98432.41
2019-04-16T22:38:25.175Z,98431.08
2019-04-16T22:41:11.142Z,98427.05
2019-04-16T22:44:00.539Z,98435.42
2019-04-16T22:46:37.614Z,98427.03
2019-04-16T22:49:08.022Z,98431.62
2019-04-16T22:51:39.757Z,98433.30
2019-04-16T22:54:10.367Z,98433.34
2019-04-16T22:57:11.686Z,98440.63
2019-04-16T22:59:41.847Z,98441.39
2019-04-16T23:02:22.423Z,98435.98
2019-04-16T23:04:54.936Z,98448.94
2019-04-16T23:07:25.163Z,98448.13
2019-04-16T23:09:55.523Z,98451.66
2019-04-16T23:12:28.091Z,98444.08
2019-04-16T23:14:57.628Z,98446.47
2019-04-16T23:17:27.947Z,98447.55
2019-04-16T23:19:58.230Z,98455.13
2019-04-16T23:22:28.584Z,98451.66
2019-04-16T23:24:58.784Z,98456.81
2019-04-16T23:27:28.957Z,98456.00
2019-04-16T23:29:59.141Z,98450.84
2019-04-16T23:32:29.300Z,98452.16
2019-04-16T23:34:59.588Z,98451.04
2019-04-16T23:37:29.696Z,98456.70
2019-04-16T23:39:59.891Z,98465.31
2019-04-16T23:42:30.145Z,98457.73
2019-04-16T23:45:22.497Z,98457.70
2019-04-16T23:48:14.647Z,98462.29
2019-04-16T23:50:50.572Z,98463.11
2019-04-16T23:53:25.664Z,98466.84
2019-04-16T23:56:24.022Z,98463.85
2019-04-16T23:59:22.624Z,98465.73
